sensor_id;sensor_type;location;lat;lon;timestamp;pressure;altitude;pressure_sealevel;temperature;humidity
19672;BME280;9983;51.114;13.788;2022-12-29T00:04:22;98757.25;;;10.68;79.32
19672;BME280;9983;51.114;13.788;2022-12-29T00:09:22;98748.16;;;10.62;78.65
19672;BME280;9983;51.114;13.788;2022-12-29T00:14:23;98755.97;;;10.63;78.83
19672;BME280;9983;51.114;13.788;2022-12-29T00:19:41;98750.88;;;10.47;79.06
19672;BME280;9983;51.114;13.788;2022-12-29T00:25:00;98749.47;;;10.73;78.21
19672;BME280;9983;51.114;13.788;2022-12-29T00:30:21;98750.34;;;10.80;77.84
19672;BME280;9983;51.114;13.788;2022-12-29T00:35:52;98713.44;;;10.54;78.90
19672;BME280;9983;51.114;13.788;2022-12-29T00:40:53;98713.59;;;10.74;78.85
19672;BME280;9983;51.114;13.788;2022-12-29T00:46:12;98721.97;;;10.92;77.09
19672;BME280;9983;51.114;13.788;2022-12-29T00:51:12;98708.47;;;11.07;76.90
19672;BME280;9983;51.114;13.788;2022-12-29T00:56:13;98708.03;;;11.03;77.44
19672;BME280;9983;51.114;13.788;2022-12-29T01:01:13;98703.22;;;11.26;76.79
19672;BME280;9983;51.114;13.788;2022-12-29T01:06:13;98706.22;;;11.10;77.59
19672;BME280;9983;51.114;13.788;2022-12-29T01:11:14;98694.84;;;11.08;78.98
19672;BME280;9983;51.114;13.788;2022-12-29T01:16:14;98715.94;;;11.11;82.23
19672;BME280;9983;51.114;13.788;2022-12-29T01:21:14;98706.56;;;11.28;82.64
19672;BME280;9983;51.114;13.788;2022-12-29T01:26:16;98719.59;;;11.03;85.26
19672;BME280;9983;51.114;13.788;2022-12-29T01:31:17;98718.53;;;11.32;84.71
19672;BME280;9983;51.114;13.788;2022-12-29T01:36:18;98715.22;;;11.30;84.48
19672;BME280;9983;51.114;13.788;2022-12-29T01:41:18;98701.44;;;11.40;84.43
19672;BME280;9983;51.114;13.788;2022-12-29T01:51:52;98693.81;;;11.44;85.74
19672;BME280;9983;51.114;13.788;2022-12-29T01:56:58;98695.41;;;11.31;87.28
19672;BME280;9983;51.114;13.788;2022-12-29T02:01:59;98699.69;;;11.19;89.34
19672;BME280;9983;51.114;13.788;2022-12-29T02:07:07;98696.53;;;11.09;91.31
19672;BME280;9983;51.114;13.788;2022-12-29T02:12:09;98688.63;;;11.01;92.72
19672;BME280;9983;51.114;13.788;2022-12-29T02:17:20;98680.34;;;10.96;96.44
19672;BME280;9983;51.114;13.788;2022-12-29T02:33:33;98668.34;;;10.92;94.17
19672;BME280;9983;51.114;13.788;2022-12-29T02:38:59;98664.66;;;10.93;94.54
19672;BME280;9983;51.114;13.788;2022-12-29T02:49:59;98666.28;;;10.87;95.53
19672;BME280;9983;51.114;13.788;2022-12-29T02:55:01;98665.50;;;11.00;92.28
19672;BME280;9983;51.114;13.788;2022-12-29T03:00:13;98656.41;;;10.94;91.99
19672;BME280;9983;51.114;13.788;2022-12-29T03:15:57;98650.75;;;11.17;90.45
19672;BME280;9983;51.114;13.788;2022-12-29T03:21:12;98655.41;;;11.36;88.96
19672;BME280;9983;51.114;13.788;2022-12-29T03:26:16;98646.31;;;11.37;90.76
19672;BME280;9983;51.114;13.788;2022-12-29T03:31:17;98644.72;;;11.50;88.76
19672;BME280;9983;51.114;13.788;2022-12-29T03:36:34;98637.69;;;11.49;89.27
19672;BME280;9983;51.114;13.788;2022-12-29T03:41:36;98631.91;;;11.45;88.03
19672;BME280;9983;51.114;13.788;2022-12-29T03:46:38;98622.41;;;11.56;88.32
19672;BME280;9983;51.114;13.788;2022-12-29T03:51:38;98610.66;;;11.50;87.90
19672;BME280;9983;51.114;13.788;2022-12-29T03:56:38;98600.56;;;11.59;87.84
19672;BME280;9983;51.114;13.788;2022-12-29T04:01:39;98607.97;;;11.57;86.03
19672;BME280;9983;51.114;13.788;2022-12-29T04:06:39;98600.56;;;11.72;85.27
19672;BME280;9983;51.114;13.788;2022-12-29T04:11:39;98597.56;;;12.01;85.60
19672;BME280;9983;51.114;13.788;2022-12-29T04:16:39;98606.00;;;11.78;85.54
19672;BME280;9983;51.114;13.788;2022-12-29T04:21:40;98612.22;;;12.05;84.05
19672;BME280;9983;51.114;13.788;2022-12-29T04:26:40;98592.81;;;12.03;84.28
19672;BME280;9983;51.114;13.788;2022-12-29T04:31:41;98598.78;;;12.05;83.09
19672;BME280;9983;51.114;13.788;2022-12-29T04:36:41;98611.41;;;12.31;82.13
19672;BME280;9983;51.114;13.788;2022-12-29T04:41:42;98614.72;;;12.13;82.17
19672;BME280;9983;51.114;13.788;2022-12-29T04:46:42;98606.06;;;12.38;82.21
19672;BME280;9983;51.114;13.788;2022-12-29T04:51:42;98599.84;;;12.31;83.79
19672;BME280;9983;51.114;13.788;2022-12-29T04:56:42;98610.16;;;11.94;84.67
19672;BME280;9983;51.114;13.788;2022-12-29T05:01:43;98610.16;;;12.07;86.03
19672;BME280;9983;51.114;13.788;2022-12-29T05:06:43;98612.25;;;12.19;92.02
19672;BME280;9983;51.114;13.788;2022-12-29T05:11:43;98627.91;;;11.82;97.68
19672;BME280;9983;51.114;13.788;2022-12-29T05:16:43;98638.69;;;11.95;96.11
19672;BME280;9983;51.114;13.788;2022-12-29T05:21:44;98623.19;;;12.10;92.91
19672;BME280;9983;51.114;13.788;2022-12-29T05:26:44;98613.47;;;12.09;93.68
19672;BME280;9983;51.114;13.788;2022-12-29T05:31:44;98624.22;;;11.96;92.66
19672;BME280;9983;51.114;13.788;2022-12-29T05:36:44;98630.44;;;12.03;92.81
19672;BME280;9983;51.114;13.788;2022-12-29T05:41:45;98632.44;;;11.75;92.43
19672;BME280;9983;51.114;13.788;2022-12-29T05:46:45;98618.03;;;12.22;91.02
19672;BME280;9983;51.114;13.788;2022-12-29T05:51:46;98617.59;;;12.05;90.14
19672;BME280;9983;51.114;13.788;2022-12-29T05:56:46;98610.59;;;12.18;90.63
19672;BME280;9983;51.114;13.788;2022-12-29T06:01:46;98621.34;;;12.11;90.25
19672;BME280;9983;51.114;13.788;2022-12-29T06:06:46;98621.94;;;12.06;89.85
19672;BME280;9983;51.114;13.788;2022-12-29T06:11:46;98624.22;;;12.23;88.94
19672;BME280;9983;51.114;13.788;2022-12-29T06:16:47;98616.78;;;12.25;89.26
19672;BME280;9983;51.114;13.788;2022-12-29T06:21:47;98608.97;;;12.30;90.42
19672;BME280;9983;51.114;13.788;2022-12-29T06:26:47;98606.44;;;12.15;89.90
19672;BME280;9983;51.114;13.788;2022-12-29T06:31:48;98604.81;;;12.21;89.71
19672;BME280;9983;51.114;13.788;2022-12-29T06:36:49;98600.44;;;12.39;88.80
19672;BME280;9983;51.114;13.788;2022-12-29T06:41:52;98590.31;;;12.61;87.65
19672;BME280;9983;51.114;13.788;2022-12-29T06:46:53;98584.53;;;12.51;87.30
19672;BME280;9983;51.114;13.788;2022-12-29T06:51:54;98584.53;;;12.58;86.41
19672;BME280;9983;51.114;13.788;2022-12-29T06:56:54;98585.19;;;12.46;86.54
19672;BME280;9983;51.114;13.788;2022-12-29T07:01:54;98596.13;;;12.38;86.99
19672;BME280;9983;51.114;13.788;2022-12-29T07:06:54;98606.47;;;12.35;87.83
19672;BME280;9983;51.114;13.788;2022-12-29T07:11:55;98603.16;;;12.33;86.34
19672;BME280;9983;51.114;13.788;2022-12-29T07:16:55;98602.75;;;12.09;86.56
19672;BME280;9983;51.114;13.788;2022-12-29T07:21:55;98612.03;;;12.07;87.14
19672;BME280;9983;51.114;13.788;2022-12-29T07:26:55;98618.41;;;11.86;87.24
19672;BME280;9983;51.114;13.788;2022-12-29T07:31:56;98623.84;;;12.52;85.34
19672;BME280;9983;51.114;13.788;2022-12-29T07:36:56;98627.56;;;12.51;84.68
19672;BME280;9983;51.114;13.788;2022-12-29T07:41:56;98627.56;;;12.11;87.04
19672;BME280;9983;51.114;13.788;2022-12-29T07:46:56;98602.94;;;12.34;85.86
19672;BME280;9983;51.114;13.788;2022-12-29T07:51:57;98605.66;;;12.28;85.86
19672;BME280;9983;51.114;13.788;2022-12-29T07:56:57;98608.53;;;12.46;85.32
19672;BME280;9983;51.114;13.788;2022-12-29T08:02:00;98614.28;;;12.56;85.92
19672;BME280;9983;51.114;13.788;2022-12-29T08:07:00;98610.38;;;12.39;86.81
19672;BME280;9983;51.114;13.788;2022-12-29T08:12:01;98619.25;;;12.72;86.08
19672;BME280;9983;51.114;13.788;2022-12-29T08:17:01;98637.47;;;12.57;84.36
19672;BME280;9983;51.114;13.788;2022-12-29T08:22:02;98638.31;;;12.71;85.17
19672;BME280;9983;51.114;13.788;2022-12-29T08:27:02;98643.25;;;12.74;83.44
19672;BME280;9983;51.114;13.788;2022-12-29T08:32:03;98651.94;;;12.69;81.97
19672;BME280;9983;51.114;13.788;2022-12-29T08:37:03;98639.53;;;12.88;81.10
19672;BME280;9983;51.114;13.788;2022-12-29T08:42:04;98652.97;;;12.68;81.79
19672;BME280;9983;51.114;13.788;2022-12-29T08:47:04;98660.22;;;12.87;80.62
19672;BME280;9983;51.114;13.788;2022-12-29T08:52:05;98667.66;;;12.85;79.38
19672;BME280;9983;51.114;13.788;2022-12-29T08:57:05;98654.63;;;12.76;80.09
19672;BME280;9983;51.114;13.788;2022-12-29T09:02:05;98651.13;;;12.62;80.17
19672;BME280;9983;51.114;13.788;2022-12-29T09:07:06;98649.88;;;12.19;81.21
19672;BME280;9983;51.114;13.788;2022-12-29T09:12:06;98659.81;;;12.51;80.45
19672;BME280;9983;51.114;13.788;2022-12-29T09:17:06;98646.97;;;12.60;80.03
19672;BME280;9983;51.114;13.788;2022-12-29T09:22:25;98648.22;;;12.70;79.67
19672;BME280;9983;51.114;13.788;2022-12-29T09:27:26;98655.66;;;12.75;78.26
19672;BME280;9983;51.114;13.788;2022-12-29T09:32:26;98655.03;;;12.40;80.12
19672;BME280;9983;51.114;13.788;2022-12-29T09:37:27;98641.59;;;12.40;79.66
19672;BME280;9983;51.114;13.788;2022-12-29T09:42:32;98653.41;;;12.72;79.21
19672;BME280;9983;51.114;13.788;2022-12-29T09:47:35;98644.72;;;12.63;79.03
19672;BME280;9983;51.114;13.788;2022-12-29T09:52:40;98646.13;;;12.72;78.18
19672;BME280;9983;51.114;13.788;2022-12-29T09:57:59;98632.84;;;13.10;77.38
19672;BME280;9983;51.114;13.788;2022-12-29T10:03:13;98637.66;;;13.59;75.17
19672;BME280;9983;51.114;13.788;2022-12-29T10:13:54;98613.16;;;13.99;72.38
19672;BME280;9983;51.114;13.788;2022-12-29T10:19:12;98629.59;;;13.91;71.88
19672;BME280;9983;51.114;13.788;2022-12-29T10:24:19;98613.53;;;13.78;72.25
19672;BME280;9983;51.114;13.788;2022-12-29T10:29:48;98606.44;;;13.83;70.92
19672;BME280;9983;51.114;13.788;2022-12-29T10:34:51;98625.13;;;13.78;70.40
19672;BME280;9983;51.114;13.788;2022-12-29T10:39:55;98612.59;;;13.97;69.73
19672;BME280;9983;51.114;13.788;2022-12-29T10:44:56;98606.03;;;14.11;68.12
19672;BME280;9983;51.114;13.788;2022-12-29T10:49:57;98594.59;;;14.16;69.47
19672;BME280;9983;51.114;13.788;2022-12-29T10:55:08;98589.47;;;14.32;68.80
19672;BME280;9983;51.114;13.788;2022-12-29T11:00:15;98577.13;;;14.50;68.89
19672;BME280;9983;51.114;13.788;2022-12-29T11:10:46;98581.53;;;14.87;67.64
19672;BME280;9983;51.114;13.788;2022-12-29T11:15:57;98575.09;;;14.20;68.99
19672;BME280;9983;51.114;13.788;2022-12-29T11:21:03;98567.28;;;14.12;69.09
19672;BME280;9983;51.114;13.788;2022-12-29T11:31:12;98574.97;;;14.33;70.24
19672;BME280;9983;51.114;13.788;2022-12-29T11:36:17;98582.09;;;14.53;69.54
19672;BME280;9983;51.114;13.788;2022-12-29T11:41:23;98584.56;;;14.29;69.63
19672;BME280;9983;51.114;13.788;2022-12-29T11:46:27;98566.22;;;13.82;72.45
19672;BME280;9983;51.114;13.788;2022-12-29T11:51:33;98568.75;;;14.58;70.26
19672;BME280;9983;51.114;13.788;2022-12-29T11:56:37;98573.00;;;14.22;70.31
19672;BME280;9983;51.114;13.788;2022-12-29T12:01:39;98578.81;;;14.69;69.37
19672;BME280;9983;51.114;13.788;2022-12-29T12:07:11;98578.47;;;14.09;70.96
19672;BME280;9983;51.114;13.788;2022-12-29T12:12:20;98566.88;;;14.33;70.23
19672;BME280;9983;51.114;13.788;2022-12-29T12:17:40;98567.28;;;14.12;70.69
19672;BME280;9983;51.114;13.788;2022-12-29T12:27:56;98545.72;;;14.80;69.55
19672;BME280;9983;51.114;13.788;2022-12-29T12:33:02;98542.97;;;14.43;70.33
19672;BME280;9983;51.114;13.788;2022-12-29T12:38:16;98534.59;;;14.52;69.48
19672;BME280;9983;51.114;13.788;2022-12-29T12:43:41;98542.22;;;14.73;67.71
19672;BME280;9983;51.114;13.788;2022-12-29T12:48:57;98543.75;;;14.87;65.99
19672;BME280;9983;51.114;13.788;2022-12-29T13:05:03;98518.25;;;14.65;65.95
19672;BME280;9983;51.114;13.788;2022-12-29T13:10:36;98521.44;;;14.80;66.31
19672;BME280;9983;51.114;13.788;2022-12-29T13:16:19;98519.91;;;15.02;65.49
19672;BME280;9983;51.114;13.788;2022-12-29T13:21:45;98537.75;;;15.03;65.61
19672;BME280;9983;51.114;13.788;2022-12-29T13:26:54;98533.88;;;14.81;66.34
19672;BME280;9983;51.114;13.788;2022-12-29T13:32:21;98543.59;;;14.82;65.84
19672;BME280;9983;51.114;13.788;2022-12-29T13:37:26;98543.97;;;14.67;65.90
19672;BME280;9983;51.114;13.788;2022-12-29T13:42:28;98549.16;;;14.87;65.70
19672;BME280;9983;51.114;13.788;2022-12-29T13:47:40;98544.06;;;14.11;67.52
19672;BME280;9983;51.114;13.788;2022-12-29T13:52:56;98543.84;;;14.37;67.22
19672;BME280;9983;51.114;13.788;2022-12-29T13:58:26;98547.09;;;14.21;67.74
19672;BME280;9983;51.114;13.788;2022-12-29T14:03:43;98552.41;;;14.03;68.81
19672;BME280;9983;51.114;13.788;2022-12-29T14:08:46;98553.19;;;14.10;68.73
19672;BME280;9983;51.114;13.788;2022-12-29T14:13:48;98552.75;;;14.13;68.19
19672;BME280;9983;51.114;13.788;2022-12-29T14:18:48;98556.81;;;14.22;67.56
19672;BME280;9983;51.114;13.788;2022-12-29T14:23:50;98560.84;;;14.13;68.69
19672;BME280;9983;51.114;13.788;2022-12-29T14:28:51;98554.44;;;14.32;67.42
19672;BME280;9983;51.114;13.788;2022-12-29T14:39:36;98570.38;;;14.40;67.37
19672;BME280;9983;51.114;13.788;2022-12-29T14:50:04;98572.53;;;14.75;66.87
19672;BME280;9983;51.114;13.788;2022-12-29T15:00:24;98583.47;;;14.98;65.42
19672;BME280;9983;51.114;13.788;2022-12-29T15:05:35;98594.97;;;14.51;66.71
19672;BME280;9983;51.114;13.788;2022-12-29T15:10:42;98589.94;;;14.29;67.58
19672;BME280;9983;51.114;13.788;2022-12-29T15:15:45;98602.47;;;14.17;68.16
19672;BME280;9983;51.114;13.788;2022-12-29T15:20:45;98612.47;;;14.10;68.07
19672;BME280;9983;51.114;13.788;2022-12-29T15:26:05;98627.00;;;14.09;68.01
19672;BME280;9983;51.114;13.788;2022-12-29T15:31:11;98633.47;;;14.01;69.46
19672;BME280;9983;51.114;13.788;2022-12-29T15:36:20;98628.66;;;14.10;70.20
19672;BME280;9983;51.114;13.788;2022-12-29T15:41:40;98641.34;;;13.65;71.78
19672;BME280;9983;51.114;13.788;2022-12-29T15:47:04;98643.91;;;13.53;72.17
19672;BME280;9983;51.114;13.788;2022-12-29T15:52:09;98652.56;;;13.62;72.05
19672;BME280;9983;51.114;13.788;2022-12-29T15:57:22;98667.78;;;13.88;70.56
19672;BME280;9983;51.114;13.788;2022-12-29T16:02:24;98677.06;;;13.47;71.82
19672;BME280;9983;51.114;13.788;2022-12-29T16:07:33;98667.13;;;13.41;72.07
19672;BME280;9983;51.114;13.788;2022-12-29T16:12:36;98668.44;;;13.19;72.76
19672;BME280;9983;51.114;13.788;2022-12-29T16:17:50;98688.31;;;12.91;73.82
19672;BME280;9983;51.114;13.788;2022-12-29T16:22:54;98697.00;;;13.07;73.81
19672;BME280;9983;51.114;13.788;2022-12-29T16:27:55;98694.09;;;13.28;73.15
19672;BME280;9983;51.114;13.788;2022-12-29T16:32:58;98711.06;;;13.09;74.04
19672;BME280;9983;51.114;13.788;2022-12-29T16:38:19;98715.19;;;13.31;74.12
19672;BME280;9983;51.114;13.788;2022-12-29T16:43:29;98716.84;;;13.45;72.89
19672;BME280;9983;51.114;13.788;2022-12-29T16:48:47;98733.03;;;12.92;74.97
19672;BME280;9983;51.114;13.788;2022-12-29T16:53:51;98723.91;;;13.07;74.79
19672;BME280;9983;51.114;13.788;2022-12-29T16:59:07;98725.16;;;13.11;74.73
19672;BME280;9983;51.114;13.788;2022-12-29T17:04:11;98734.28;;;13.16;75.23
19672;BME280;9983;51.114;13.788;2022-12-29T17:09:21;98747.94;;;13.02;74.25
19672;BME280;9983;51.114;13.788;2022-12-29T17:19:44;98741.69;;;12.42;76.42
19672;BME280;9983;51.114;13.788;2022-12-29T17:24:45;98740.28;;;12.85;75.38
19672;BME280;9983;51.114;13.788;2022-12-29T17:29:46;98743.38;;;12.96;74.74
19672;BME280;9983;51.114;13.788;2022-12-29T17:34:47;98750.00;;;12.73;75.67
19672;BME280;9983;51.114;13.788;2022-12-29T17:39:47;98759.88;;;12.40;77.80
19672;BME280;9983;51.114;13.788;2022-12-29T17:44:48;98755.38;;;12.73;75.76
19672;BME280;9983;51.114;13.788;2022-12-29T17:49:48;98752.47;;;12.55;77.02
19672;BME280;9983;51.114;13.788;2022-12-29T17:54:51;98749.59;;;12.63;77.09
19672;BME280;9983;51.114;13.788;2022-12-29T17:59:51;98762.41;;;12.74;76.48
19672;BME280;9983;51.114;13.788;2022-12-29T18:04:52;98752.47;;;12.68;77.11
19672;BME280;9983;51.114;13.788;2022-12-29T18:09:53;98749.13;;;12.40;78.84
19672;BME280;9983;51.114;13.788;2022-12-29T18:14:54;98753.47;;;12.41;79.08
19672;BME280;9983;51.114;13.788;2022-12-29T18:19:55;98758.63;;;12.36;78.66
19672;BME280;9983;51.114;13.788;2022-12-29T18:24:55;98760.72;;;12.47;79.40
19672;BME280;9983;51.114;13.788;2022-12-29T18:29:55;98766.69;;;12.36;80.01
19672;BME280;9983;51.114;13.788;2022-12-29T18:34:55;98756.06;;;12.08;82.12
19672;BME280;9983;51.114;13.788;2022-12-29T18:39:56;98763.63;;;12.52;80.43
19672;BME280;9983;51.114;13.788;2022-12-29T18:44:56;98760.34;;;12.76;79.21
19672;BME280;9983;51.114;13.788;2022-12-29T18:49:56;98757.22;;;12.60;80.85
19672;BME280;9983;51.114;13.788;2022-12-29T18:54:57;98739.66;;;12.90;78.83
19672;BME280;9983;51.114;13.788;2022-12-29T18:59:58;98735.75;;;12.79;79.18
19672;BME280;9983;51.114;13.788;2022-12-29T19:04:58;98741.31;;;12.78;79.02
19672;BME280;9983;51.114;13.788;2022-12-29T19:09:59;98759.50;;;12.82;79.48
19672;BME280;9983;51.114;13.788;2022-12-29T19:14:59;98753.31;;;12.75;79.37
19672;BME280;9983;51.114;13.788;2022-12-29T19:20:01;98746.28;;;12.61;80.38
19672;BME280;9983;51.114;13.788;2022-12-29T19:25:02;98736.34;;;12.68;78.98
19672;BME280;9983;51.114;13.788;2022-12-29T19:30:03;98737.78;;;13.04;77.45
19672;BME280;9983;51.114;13.788;2022-12-29T19:35:03;98739.44;;;13.05;77.57
19672;BME280;9983;51.114;13.788;2022-12-29T19:40:08;98744.63;;;13.00;77.06
19672;BME280;9983;51.114;13.788;2022-12-29T19:45:09;98739.84;;;12.75;77.75
19672;BME280;9983;51.114;13.788;2022-12-29T19:50:11;98740.91;;;12.94;77.03
19672;BME280;9983;51.114;13.788;2022-12-29T19:55:14;98754.97;;;12.76;77.28
19672;BME280;9983;51.114;13.788;2022-12-29T20:00:15;98750.00;;;12.86;76.81
19672;BME280;9983;51.114;13.788;2022-12-29T20:05:15;98740.88;;;13.01;76.31
19672;BME280;9983;51.114;13.788;2022-12-29T20:10:16;98737.97;;;13.09;75.81
19672;BME280;9983;51.114;13.788;2022-12-29T20:15:16;98726.81;;;12.99;75.65
19672;BME280;9983;51.114;13.788;2022-12-29T20:20:16;98722.06;;;13.01;74.92
19672;BME280;9983;51.114;13.788;2022-12-29T20:25:17;98730.53;;;12.98;75.05
19672;BME280;9983;51.114;13.788;2022-12-29T20:30:17;98727.66;;;12.79;74.80
19672;BME280;9983;51.114;13.788;2022-12-29T20:35:18;98729.28;;;12.80;75.02
19672;BME280;9983;51.114;13.788;2022-12-29T20:40:18;98730.56;;;12.78;74.92
19672;BME280;9983;51.114;13.788;2022-12-29T20:45:18;98744.63;;;12.67;75.36
19672;BME280;9983;51.114;13.788;2022-12-29T20:50:19;98722.66;;;12.50;76.36
19672;BME280;9983;51.114;13.788;2022-12-29T20:55:19;98735.91;;;12.45;76.41
19672;BME280;9983;51.114;13.788;2022-12-29T21:00:19;98742.31;;;12.44;76.27
19672;BME280;9983;51.114;13.788;2022-12-29T21:05:19;98747.88;;;12.29;76.74
19672;BME280;9983;51.114;13.788;2022-12-29T21:10:20;98760.63;;;12.07;77.07
19672;BME280;9983;51.114;13.788;2022-12-29T21:15:21;98770.16;;;12.16;76.50
19672;BME280;9983;51.114;13.788;2022-12-29T21:20:22;98769.69;;;12.06;76.95
19672;BME280;9983;51.114;13.788;2022-12-29T21:25:30;98780.06;;;12.09;76.67
19672;BME280;9983;51.114;13.788;2022-12-29T21:30:36;98788.25;;;11.88;78.15
19672;BME280;9983;51.114;13.788;2022-12-29T21:35:37;98795.84;;;11.50;79.51
19672;BME280;9983;51.114;13.788;2022-12-29T21:40:38;98796.00;;;11.14;81.52
19672;BME280;9983;51.114;13.788;2022-12-29T21:45:39;98802.44;;;11.48;80.42
19672;BME280;9983;51.114;13.788;2022-12-29T21:50:40;98811.16;;;11.56;79.93
19672;BME280;9983;51.114;13.788;2022-12-29T21:55:59;98821.16;;;11.69;79.79
19672;BME280;9983;51.114;13.788;2022-12-29T22:01:00;98826.84;;;11.53;80.38
19672;BME280;9983;51.114;13.788;2022-12-29T22:06:18;98834.63;;;11.48;81.11
19672;BME280;9983;51.114;13.788;2022-12-29T22:11:37;98836.59;;;11.32;81.90
19672;BME280;9983;51.114;13.788;2022-12-29T22:16:56;98836.78;;;11.03;83.86
19672;BME280;9983;51.114;13.788;2022-12-29T22:21:57;98849.69;;;10.93;84.60
19672;BME280;9983;51.114;13.788;2022-12-29T22:26:57;98862.97;;;11.01;83.97
19672;BME280;9983;51.114;13.788;2022-12-29T22:31:57;98869.34;;;11.00;84.64
19672;BME280;9983;51.114;13.788;2022-12-29T22:36:58;98868.09;;;10.96;84.05
19672;BME280;9983;51.114;13.788;2022-12-29T22:41:58;98875.59;;;10.64;86.38
19672;BME280;9983;51.114;13.788;2022-12-29T22:46:58;98868.78;;;10.83;84.78
19672;BME280;9983;51.114;13.788;2022-12-29T22:51:59;98869.72;;;10.97;84.26
19672;BME280;9983;51.114;13.788;2022-12-29T22:56:59;98864.88;;;10.86;84.75
19672;BME280;9983;51.114;13.788;2022-12-29T23:02:00;98864.50;;;11.10;83.13
19672;BME280;9983;51.114;13.788;2022-12-29T23:07:00;98866.38;;;11.37;82.04
19672;BME280;9983;51.114;13.788;2022-12-29T23:12:00;98882.50;;;10.95;83.04
19672;BME280;9983;51.114;13.788;2022-12-29T23:17:01;98881.16;;;11.06;82.37
19672;BME280;9983;51.114;13.788;2022-12-29T23:22:01;98888.31;;;10.98;82.66
19672;BME280;9983;51.114;13.788;2022-12-29T23:27:01;98877.13;;;11.16;81.50
19672;BME280;9983;51.114;13.788;2022-12-29T23:32:01;98869.78;;;10.61;83.96
19672;BME280;9983;51.114;13.788;2022-12-29T23:37:02;98886.84;;;11.17;81.25
19672;BME280;9983;51.114;13.788;2022-12-29T23:42:02;98872.28;;;11.05;82.03
19672;BME280;9983;51.114;13.788;2022-12-29T23:47:02;98878.28;;;10.86;81.66
19672;BME280;9983;51.114;13.788;2022-12-29T23:52:03;98880.97;;;11.07;82.30
19672;BME280;9983;51.114;13.788;2022-12-29T23:57:03;98883.78;;;10.78;82.34
